createdAt,value
2022-11-20T00:01:06.985Z,-4.27
2022-11-20T00:03:34.897Z,-4.27
2022-11-20T00:06:03.098Z,-4.31
2022-11-20T00:08:30.835Z,-4.31
2022-11-20T00:10:58.802Z,-4.33
2022-11-20T00:13:26.531Z,-4.33
2022-11-20T00:16:00.639Z,-4.33
2022-11-20T00:18:29.134Z,-4.31
2022-11-20T00:21:02.885Z,-4.30
2022-11-20T00:23:30.679Z,-4.30
2022-11-20T00:25:58.713Z,-4.31
2022-11-20T00:28:26.499Z,-4.32
2022-11-20T00:30:54.194Z,-4.33
2022-11-20T00:33:23.284Z,-4.33
2022-11-20T00:35:51.003Z,-4.33
2022-11-20T00:38:18.759Z,-4.34
2022-11-20T00:40:49.807Z,-4.36
2022-11-20T00:43:20.150Z,-4.35
2022-11-20T00:45:47.847Z,-4.33
2022-11-20T00:48:15.523Z,-4.33
2022-11-20T00:50:44.610Z,-4.33
2022-11-20T00:53:12.292Z,-4.33
2022-11-20T00:55:39.966Z,-4.36
2022-11-20T00:58:12.990Z,-4.36
2022-11-20T01:00:42.034Z,-4.39
2022-11-20T01:03:09.775Z,-4.39
2022-11-20T01:05:37.570Z,-4.40
2022-11-20T01:08:06.934Z,-4.43
2022-11-20T01:10:34.646Z,-4.45
2022-11-20T01:13:16.522Z,-4.46
2022-11-20T01:15:45.490Z,-4.48
2022-11-20T01:18:13.193Z,-4.50
2022-11-20T01:20:40.881Z,-4.52
2022-11-20T01:23:09.926Z,-4.51
2022-11-20T01:25:37.613Z,-4.53
2022-11-20T01:28:05.457Z,-4.55
2022-11-20T01:30:33.126Z,-4.58
2022-11-20T01:33:00.829Z,-4.57
2022-11-20T01:35:28.589Z,-4.59
2022-11-20T01:37:56.374Z,-4.59
2022-11-20T01:40:25.502Z,-4.60
2022-11-20T01:43:19.681Z,-4.62
2022-11-20T01:45:58.867Z,-4.66
2022-11-20T01:48:30.769Z,-4.69
2022-11-20T01:51:00.158Z,-4.71
2022-11-20T01:53:32.580Z,-4.73
2022-11-20T01:56:04.836Z,-4.75
2022-11-20T01:58:36.405Z,-4.77
2022-11-20T02:01:05.553Z,-4.76
2022-11-20T02:03:33.744Z,-4.79
2022-11-20T02:06:08.058Z,-4.78
2022-11-20T02:08:36.461Z,-4.78
2022-11-20T02:11:05.692Z,-4.79
2022-11-20T02:13:44.359Z,-4.79
2022-11-20T02:16:20.467Z,-4.80
2022-11-20T02:18:49.321Z,-4.82
2022-11-20T02:21:27.353Z,-4.83
2022-11-20T02:24:08.171Z,-4.83
2022-11-20T02:26:40.094Z,-4.85
2022-11-20T02:29:07.869Z,-4.85
2022-11-20T02:31:40.318Z,-4.86
2022-11-20T02:34:08.014Z,-4.86
2022-11-20T02:36:37.865Z,-4.87
2022-11-20T02:39:07.682Z,-4.87
2022-11-20T02:41:37.265Z,-4.88
2022-11-20T02:44:06.374Z,-4.89
2022-11-20T02:46:34.672Z,-4.91
2022-11-20T02:49:03.771Z,-4.92
2022-11-20T02:51:31.750Z,-4.93
2022-11-20T02:53:59.758Z,-4.95
2022-11-20T02:56:29.469Z,-4.94
2022-11-20T02:58:57.330Z,-4.95
2022-11-20T03:01:25.179Z,-4.96
2022-11-20T03:03:55.397Z,-4.96
2022-11-20T03:06:23.534Z,-4.97
2022-11-20T03:08:51.243Z,-4.97
2022-11-20T03:11:19.212Z,-4.97
2022-11-20T03:13:48.277Z,-4.97
2022-11-20T03:16:17.958Z,-4.97
2022-11-20T03:18:46.155Z,-4.99
2022-11-20T03:21:15.102Z,-4.99
2022-11-20T03:23:43.250Z,-5.01
2022-11-20T03:26:13.475Z,-5.02
2022-11-20T03:28:41.919Z,-5.05
2022-11-20T03:31:12.959Z,-5.04
2022-11-20T03:33:41.596Z,-5.06
2022-11-20T03:36:11.606Z,-5.09
2022-11-20T03:38:40.160Z,-5.11
2022-11-20T03:41:09.741Z,-5.12
2022-11-20T03:43:37.623Z,-5.10
2022-11-20T03:46:06.164Z,-5.11
2022-11-20T03:48:35.677Z,-5.11
2022-11-20T03:51:10.900Z,-5.11
2022-11-20T03:53:38.833Z,-5.12
2022-11-20T03:56:07.503Z,-5.14
2022-11-20T03:58:35.625Z,-5.16
2022-11-20T04:01:07.896Z,-5.16
2022-11-20T04:03:37.673Z,-5.17
2022-11-20T04:06:07.504Z,-5.18
2022-11-20T04:08:35.629Z,-5.20
2022-11-20T04:11:14.597Z,-5.21
2022-11-20T04:13:43.660Z,-5.23
2022-11-20T04:16:11.896Z,-5.24
2022-11-20T04:18:41.058Z,-5.25
2022-11-20T04:21:09.137Z,-5.25
2022-11-20T04:23:36.918Z,-5.26
2022-11-20T04:26:05.990Z,-5.25
2022-11-20T04:28:33.711Z,-5.24
2022-11-20T04:31:06.153Z,-5.25
2022-11-20T04:33:34.648Z,-5.26
2022-11-20T04:36:09.385Z,-5.26
2022-11-20T04:38:37.078Z,-5.25
2022-11-20T04:41:07.223Z,-5.24
2022-11-20T04:43:36.152Z,-5.27
2022-11-20T04:46:04.061Z,-5.28
2022-11-20T04:48:32.246Z,-5.27
2022-11-20T04:50:59.941Z,-5.29
2022-11-20T04:53:28.978Z,-5.29
2022-11-20T04:56:01.712Z,-5.29
2022-11-20T04:58:29.562Z,-5.31
2022-11-20T05:01:04.065Z,-5.32
2022-11-20T05:03:32.169Z,-5.32
2022-11-20T05:06:03.201Z,-5.33
2022-11-20T05:08:32.744Z,-5.31
2022-11-20T05:11:04.232Z,-5.33
2022-11-20T05:13:32.013Z,-5.34
2022-11-20T05:16:03.983Z,-5.33
2022-11-20T05:18:32.097Z,-5.35
2022-11-20T05:20:59.931Z,-5.35
2022-11-20T05:23:28.254Z,-5.37
2022-11-20T05:25:59.765Z,-5.37
2022-11-20T05:28:28.958Z,-5.38
2022-11-20T05:30:57.004Z,-5.38
2022-11-20T05:33:24.924Z,-5.40
2022-11-20T05:35:52.606Z,-5.40
2022-11-20T05:38:20.276Z,-5.41
2022-11-20T05:40:47.967Z,-5.41
2022-11-20T05:43:17.110Z,-5.43
2022-11-20T05:45:44.805Z,-5.43
2022-11-20T05:48:12.466Z,-5.45
2022-11-20T05:50:40.276Z,-5.44
2022-11-20T05:53:07.966Z,-5.46
2022-11-20T05:55:35.718Z,-5.47
2022-11-20T05:58:03.428Z,-5.47
2022-11-20T06:00:32.423Z,-5.46
2022-11-20T06:03:00.238Z,-5.48
2022-11-20T06:05:27.973Z,-5.48
2022-11-20T06:07:55.659Z,-5.49
2022-11-20T06:10:23.377Z,-5.50
2022-11-20T06:12:51.085Z,-5.50
2022-11-20T06:15:18.909Z,-5.54
2022-11-20T06:17:48.102Z,-5.54
2022-11-20T06:20:15.969Z,-5.56
2022-11-20T06:22:43.695Z,-5.57
2022-11-20T06:25:11.517Z,-5.57
2022-11-20T06:27:39.185Z,-5.56
2022-11-20T06:30:07.967Z,-5.56
2022-11-20T06:32:35.731Z,-5.54
2022-11-20T06:35:05.382Z,-5.53
2022-11-20T06:37:33.118Z,-5.53
2022-11-20T06:40:00.829Z,-5.53
2022-11-20T06:42:28.508Z,-5.52
2022-11-20T06:44:56.169Z,-5.52
2022-11-20T06:47:23.961Z,-5.51
2022-11-20T06:49:51.627Z,-5.50
2022-11-20T06:52:20.641Z,-5.49
2022-11-20T06:54:48.382Z,-5.49
2022-11-20T06:57:16.037Z,-5.48
2022-11-20T06:59:43.874Z,-5.48
2022-11-20T07:02:12.611Z,-5.43
2022-11-20T07:04:40.582Z,-5.43
2022-11-20T07:07:08.519Z,-5.41
2022-11-20T07:09:37.660Z,-5.38
2022-11-20T07:12:05.733Z,-5.34
2022-11-20T07:14:33.490Z,-5.30
2022-11-20T07:17:01.163Z,-5.23
2022-11-20T07:19:28.862Z,-5.20
2022-11-20T07:21:56.645Z,-5.17
2022-11-20T07:24:24.292Z,-5.12
2022-11-20T07:26:53.369Z,-5.03
2022-11-20T07:29:21.286Z,-4.93
2022-11-20T07:31:49.182Z,-4.80
2022-11-20T07:34:17.036Z,-4.60
2022-11-20T07:36:44.758Z,-4.33
2022-11-20T07:39:12.562Z,-4.05
2022-11-20T07:41:40.265Z,-3.71
2022-11-20T07:44:09.313Z,-3.39
2022-11-20T07:46:37.265Z,-3.08
2022-11-20T07:49:04.954Z,-2.80
2022-11-20T07:51:32.656Z,-2.55
2022-11-20T07:54:00.504Z,-2.29
2022-11-20T07:56:28.240Z,-2.02
2022-11-20T07:58:56.235Z,-1.78
2022-11-20T08:01:25.451Z,-1.53
2022-11-20T08:03:53.239Z,-1.31
2022-11-20T08:06:21.051Z,-1.14
2022-11-20T08:08:48.734Z,-0.99
2022-11-20T08:11:33.821Z,-0.89
2022-11-20T08:14:13.674Z,-0.83
2022-11-20T08:16:44.483Z,-0.84
2022-11-20T08:19:12.378Z,-0.87
2022-11-20T08:21:40.442Z,-0.92
2022-11-20T08:24:09.136Z,-1.00
2022-11-20T08:26:37.786Z,-1.04
2022-11-20T08:29:06.775Z,-1.07
2022-11-20T08:31:34.907Z,-1.14
2022-11-20T08:34:09.009Z,-1.15
2022-11-20T08:36:38.119Z,-1.19
2022-11-20T08:39:05.894Z,-1.19
2022-11-20T08:41:34.199Z,-1.18
2022-11-20T08:44:03.694Z,-1.19
2022-11-20T08:46:36.333Z,-1.18
2022-11-20T08:49:05.610Z,-1.14
2022-11-20T08:51:33.673Z,-1.13
2022-11-20T08:54:01.416Z,-1.13
2022-11-20T08:56:29.841Z,-1.08
2022-11-20T09:01:45.425Z,-0.89
2022-11-20T09:04:15.377Z,-0.75
2022-11-20T09:06:43.144Z,-0.57
2022-11-20T09:09:10.867Z,-0.33
2022-11-20T09:11:38.602Z,-0.12
2022-11-20T09:14:06.257Z,0.08
2022-11-20T09:16:33.973Z,0.21
2022-11-20T09:19:28.617Z,0.35
2022-11-20T09:21:50.836Z,0.59
2022-11-20T09:24:18.861Z,0.79
2022-11-20T09:26:46.897Z,0.93
2022-11-20T09:29:14.868Z,1.10
2022-11-20T09:31:42.729Z,1.19
2022-11-20T09:34:10.924Z,1.23
2022-11-20T09:36:38.661Z,1.38
2022-11-20T09:39:07.806Z,1.54
2022-11-20T09:41:57.068Z,1.72
2022-11-20T09:44:42.213Z,1.86
2022-11-20T09:47:19.163Z,1.91
2022-11-20T09:50:00.446Z,1.99
2022-11-20T09:52:38.765Z,2.11
2022-11-20T09:55:12.343Z,2.22
2022-11-20T09:57:42.676Z,2.51
2022-11-20T10:00:13.596Z,2.66
2022-11-20T10:02:45.027Z,2.68
2022-11-20T10:05:17.421Z,2.77
2022-11-20T10:07:49.720Z,2.86
2022-11-20T10:10:23.650Z,3.02
2022-11-20T10:13:06.918Z,3.21
2022-11-20T10:15:53.650Z,3.15
2022-11-20T10:18:33.930Z,3.09
2022-11-20T10:21:10.075Z,2.85
2022-11-20T10:24:01.735Z,2.64
2022-11-20T10:26:41.136Z,2.41
2022-11-20T10:29:14.321Z,2.25
2022-11-20T10:31:44.510Z,2.08
2022-11-20T10:34:23.493Z,1.93
2022-11-20T10:36:57.075Z,1.83
2022-11-20T10:39:33.318Z,1.81
2022-11-20T10:42:02.921Z,1.84
2022-11-20T10:44:53.751Z,1.78
2022-11-20T10:47:24.179Z,1.71
2022-11-20T10:49:55.057Z,1.67
2022-11-20T10:52:33.569Z,1.61
2022-11-20T10:55:13.390Z,1.54
2022-11-20T10:57:54.738Z,1.49
2022-11-20T11:00:23.551Z,1.46
2022-11-20T11:02:52.443Z,1.45
2022-11-20T11:05:29.790Z,1.41
2022-11-20T11:07:59.211Z,1.40
2022-11-20T11:10:36.230Z,1.34
2022-11-20T11:13:05.381Z,1.37
2022-11-20T11:15:40.417Z,1.37
2022-11-20T11:18:11.458Z,1.37
2022-11-20T11:20:39.754Z,1.35
2022-11-20T11:23:28.517Z,1.33
2022-11-20T11:25:59.833Z,1.31
2022-11-20T11:28:30.426Z,1.28
2022-11-20T11:30:58.400Z,1.28
2022-11-20T11:33:27.457Z,1.27
2022-11-20T11:35:58.203Z,1.27
2022-11-20T11:38:32.756Z,1.29
2022-11-20T11:41:00.899Z,1.31
2022-11-20T11:43:51.883Z,1.35
2022-11-20T11:46:34.912Z,1.38
2022-11-20T11:49:17.164Z,1.40
2022-11-20T11:51:58.972Z,1.38
2022-11-20T11:54:30.714Z,1.39
2022-11-20T11:57:02.915Z,1.36
2022-11-20T11:59:46.229Z,1.38
2022-11-20T12:02:25.571Z,1.37
2022-11-20T12:04:59.633Z,1.37
2022-11-20T12:07:46.636Z,1.38
2022-11-20T12:10:21.641Z,1.41
2022-11-20T12:12:54.275Z,1.40
2022-11-20T12:15:30.881Z,1.40
2022-11-20T12:17:58.476Z,1.38
2022-11-20T12:20:30.753Z,1.38
2022-11-20T12:23:04.510Z,1.40
2022-11-20T12:25:36.494Z,1.40
2022-11-20T12:28:19.638Z,1.40
2022-11-20T12:31:02.218Z,1.37
2022-11-20T12:33:45.504Z,1.35
2022-11-20T12:36:25.795Z,1.34
2022-11-20T12:39:05.418Z,1.32
2022-11-20T12:42:07.373Z,1.31
2022-11-20T12:45:14.142Z,1.29
2022-11-20T12:47:58.029Z,1.31
2022-11-20T12:50:53.248Z,1.34
2022-11-20T12:53:33.648Z,1.36
2022-11-20T12:56:11.481Z,1.40
2022-11-20T12:58:49.120Z,1.42
2022-11-20T13:01:41.835Z,1.48
2022-11-20T13:04:20.851Z,1.52
2022-11-20T13:06:49.995Z,1.60
2022-11-20T13:09:22.895Z,1.64
2022-11-20T13:11:59.925Z,1.66
2022-11-20T13:14:35.786Z,1.68
2022-11-20T13:17:10.518Z,1.69
2022-11-20T13:19:40.284Z,1.70
2022-11-20T13:22:10.273Z,1.70
2022-11-20T13:24:37.970Z,1.70
2022-11-20T13:27:22.193Z,1.69
2022-11-20T13:30:02.934Z,1.67
2022-11-20T13:32:33.068Z,1.65
2022-11-20T13:35:03.625Z,1.63
2022-11-20T13:37:34.217Z,1.60
2022-11-20T13:40:15.800Z,1.60
2022-11-20T13:42:47.652Z,1.56
2022-11-20T13:45:25.275Z,1.56
2022-11-20T13:47:54.689Z,1.53
2022-11-20T13:50:41.602Z,1.49
2022-11-20T13:53:27.430Z,1.45
2022-11-20T13:56:01.148Z,1.42
2022-11-20T13:58:45.003Z,1.42
2022-11-20T14:01:18.649Z,1.39
2022-11-20T14:06:43.400Z,1.41
2022-11-20T14:09:13.293Z,1.48
2022-11-20T14:11:48.680Z,1.53
2022-11-20T14:14:20.069Z,1.61
2022-11-20T14:16:48.407Z,1.69
2022-11-20T14:19:28.156Z,1.76
2022-11-20T14:22:10.660Z,1.83
2022-11-20T14:24:38.889Z,1.89
2022-11-20T14:27:06.860Z,1.93
2022-11-20T14:29:38.274Z,1.95
2022-11-20T14:32:06.821Z,2.00
2022-11-20T14:34:40.177Z,2.02
2022-11-20T14:37:17.081Z,2.05
2022-11-20T14:39:51.193Z,2.05
2022-11-20T14:42:20.315Z,2.05
2022-11-20T14:44:49.641Z,2.07
2022-11-20T14:47:21.031Z,2.09
2022-11-20T14:49:49.406Z,2.07
2022-11-20T14:52:20.387Z,2.08
2022-11-20T14:54:49.986Z,2.07
2022-11-20T14:57:27.033Z,2.05
2022-11-20T15:00:07.180Z,2.03
2022-11-20T15:02:35.207Z,2.01
2022-11-20T15:05:04.507Z,1.99
2022-11-20T15:07:36.267Z,1.96
2022-11-20T15:10:06.499Z,1.93
2022-11-20T15:12:35.753Z,1.94
2022-11-20T15:15:06.128Z,1.93
2022-11-20T15:17:38.035Z,1.94
2022-11-20T15:20:13.798Z,1.96
2022-11-20T15:22:43.280Z,1.97
2022-11-20T15:25:15.107Z,1.99
2022-11-20T15:27:43.323Z,2.03
2022-11-20T15:30:15.567Z,2.04
2022-11-20T15:32:43.993Z,2.06
2022-11-20T15:35:12.444Z,2.05
2022-11-20T15:37:41.020Z,2.00
2022-11-20T15:40:11.254Z,1.96
2022-11-20T15:42:39.040Z,1.91
2022-11-20T15:45:07.320Z,1.85
2022-11-20T15:47:37.246Z,1.81
2022-11-20T15:50:19.628Z,1.75
2022-11-20T15:52:47.359Z,1.71
2022-11-20T15:55:16.534Z,1.73
2022-11-20T15:57:44.299Z,1.79
2022-11-20T16:00:13.578Z,1.86
2022-11-20T16:02:41.303Z,1.95
2022-11-20T16:05:12.905Z,2.04
2022-11-20T16:07:40.698Z,2.12
2022-11-20T16:10:09.319Z,2.18
2022-11-20T16:13:01.105Z,2.24
2022-11-20T16:15:47.086Z,2.31
2022-11-20T16:18:16.527Z,2.38
2022-11-20T16:20:44.694Z,2.43
2022-11-20T16:23:12.570Z,2.47
2022-11-20T16:25:40.286Z,2.53
2022-11-20T16:28:09.816Z,2.57
2022-11-20T16:30:40.333Z,2.63
2022-11-20T16:33:11.951Z,2.67
2022-11-20T16:35:40.055Z,2.69
2022-11-20T16:38:08.112Z,2.71
2022-11-20T16:40:35.976Z,2.75
2022-11-20T16:43:11.666Z,2.78
2022-11-20T16:45:43.971Z,2.81
2022-11-20T16:48:15.072Z,2.82
2022-11-20T16:50:51.260Z,2.86
2022-11-20T16:53:20.148Z,2.89
2022-11-20T16:55:48.101Z,2.91
2022-11-20T16:58:17.456Z,2.93
2022-11-20T17:00:51.132Z,2.97
2022-11-20T17:03:20.817Z,2.96
2022-11-20T17:05:48.658Z,2.98
2022-11-20T17:08:16.353Z,2.96
2022-11-20T17:10:44.429Z,2.96
2022-11-20T17:13:12.145Z,2.96
2022-11-20T17:15:41.273Z,2.96
2022-11-20T17:18:08.961Z,2.97
2022-11-20T17:20:36.691Z,2.94
2022-11-20T17:23:04.401Z,2.93
2022-11-20T17:25:34.574Z,2.91
2022-11-20T17:28:02.285Z,2.90
2022-11-20T17:30:30.047Z,2.90
2022-11-20T17:32:59.143Z,2.85
2022-11-20T17:35:26.926Z,2.84
2022-11-20T17:37:54.769Z,2.85
2022-11-20T17:40:27.137Z,2.83
2022-11-20T17:42:55.556Z,2.81
2022-11-20T17:45:23.353Z,2.78
2022-11-20T17:47:51.147Z,2.73
2022-11-20T17:50:20.255Z,2.69
2022-11-20T17:52:48.271Z,2.68
2022-11-20T17:55:16.327Z,2.67
2022-11-20T17:57:57.004Z,2.67
2022-11-20T18:00:25.190Z,2.64
2022-11-20T18:02:53.019Z,2.58
2022-11-20T18:05:22.283Z,2.56
2022-11-20T18:07:53.609Z,2.57
2022-11-20T18:10:21.589Z,2.55
2022-11-20T18:12:49.291Z,2.56
2022-11-20T18:15:17.187Z,2.54
2022-11-20T18:17:44.879Z,2.50
2022-11-20T18:20:31.118Z,2.52
2022-11-20T18:23:01.928Z,2.48
2022-11-20T18:25:29.638Z,2.43
2022-11-20T18:27:57.443Z,2.40
2022-11-20T18:30:25.601Z,2.37
2022-11-20T18:32:53.278Z,2.38
2022-11-20T18:35:21.206Z,2.39
2022-11-20T18:37:48.970Z,2.39
2022-11-20T18:40:18.241Z,2.42
2022-11-20T18:43:03.412Z,2.42
2022-11-20T18:45:31.601Z,2.43
2022-11-20T18:47:59.306Z,2.45
2022-11-20T18:50:27.081Z,2.45
2022-11-20T18:52:54.876Z,2.46
2022-11-20T18:55:25.838Z,2.47
2022-11-20T18:57:55.021Z,2.43
2022-11-20T19:00:22.760Z,2.42
2022-11-20T19:02:54.393Z,2.39
2022-11-20T19:05:22.245Z,2.38
2022-11-20T19:07:50.009Z,2.34
2022-11-20T19:10:20.144Z,2.32
2022-11-20T19:12:50.410Z,2.28
2022-11-20T19:15:18.266Z,2.24
2022-11-20T19:17:45.952Z,2.18
2022-11-20T19:20:13.975Z,2.13
2022-11-20T19:22:41.804Z,2.11
2022-11-20T19:25:10.412Z,2.05
2022-11-20T19:27:38.443Z,2.02
2022-11-20T19:30:08.587Z,1.99
2022-11-20T19:32:36.301Z,1.96
2022-11-20T19:35:04.653Z,1.89
2022-11-20T19:37:34.265Z,1.86
2022-11-20T19:40:04.443Z,1.82
2022-11-20T19:42:32.511Z,1.78
2022-11-20T19:45:00.250Z,1.73
2022-11-20T19:47:46.347Z,1.73
2022-11-20T19:50:17.321Z,1.70
2022-11-20T19:52:45.105Z,1.71
2022-11-20T19:55:12.829Z,1.73
2022-11-20T19:57:40.588Z,1.74
2022-11-20T20:00:09.761Z,1.76
2022-11-20T20:02:38.882Z,1.75
2022-11-20T20:05:07.582Z,1.75
2022-11-20T20:07:35.688Z,1.70
2022-11-20T20:10:03.470Z,1.69
2022-11-20T20:12:31.198Z,1.68
2022-11-20T20:14:58.969Z,1.66
2022-11-20T20:17:26.682Z,1.62
2022-11-20T20:19:55.848Z,1.61
2022-11-20T20:22:23.665Z,1.61
2022-11-20T20:24:52.072Z,1.62
2022-11-20T20:27:19.777Z,1.64
2022-11-20T20:29:47.585Z,1.64
2022-11-20T20:32:15.329Z,1.66
2022-11-20T20:34:43.107Z,1.68
2022-11-20T20:37:12.173Z,1.69
2022-11-20T20:39:40.016Z,1.71
2022-11-20T20:42:07.761Z,1.72
2022-11-20T20:44:53.438Z,1.73
2022-11-20T20:47:21.147Z,1.73
2022-11-20T20:49:48.857Z,1.74
2022-11-20T20:52:18.019Z,1.72
2022-11-20T20:54:45.753Z,1.71
2022-11-20T20:57:13.453Z,1.68
2022-11-20T20:59:41.379Z,1.66
2022-11-20T21:02:11.307Z,1.67
2022-11-20T21:04:39.074Z,1.67
2022-11-20T21:07:07.055Z,1.64
2022-11-20T21:09:36.174Z,1.62
2022-11-20T21:12:04.102Z,1.63
2022-11-20T21:14:34.047Z,1.63
2022-11-20T21:17:02.113Z,1.64
2022-11-20T21:19:29.856Z,1.66
2022-11-20T21:21:59.566Z,1.67
2022-11-20T21:24:28.108Z,1.69
2022-11-20T21:26:57.793Z,1.68
2022-11-20T21:29:26.837Z,1.68
2022-11-20T21:31:54.902Z,1.65
2022-11-20T21:34:23.467Z,1.63
2022-11-20T21:36:52.083Z,1.62
2022-11-20T21:39:21.649Z,1.63
2022-11-20T21:41:49.622Z,1.63
2022-11-20T21:44:34.072Z,1.65
2022-11-20T21:47:01.894Z,1.65
2022-11-20T21:49:29.644Z,1.65
2022-11-20T21:51:57.669Z,1.66
2022-11-20T21:54:25.759Z,1.66
2022-11-20T21:56:53.952Z,1.66
2022-11-20T21:59:23.409Z,1.68
2022-11-20T22:01:51.614Z,1.71
2022-11-20T22:04:20.130Z,1.70
2022-11-20T22:06:48.761Z,1.71
2022-11-20T22:09:16.627Z,1.71
2022-11-20T22:11:44.634Z,1.71
2022-11-20T22:14:24.300Z,1.69
2022-11-20T22:16:54.601Z,1.70
2022-11-20T22:19:23.982Z,1.68
2022-11-20T22:21:51.776Z,1.67
2022-11-20T22:24:24.181Z,1.65
2022-11-20T22:26:52.418Z,1.67
2022-11-20T22:29:21.936Z,1.67
2022-11-20T22:31:53.931Z,1.69
2022-11-20T22:34:22.077Z,1.69
2022-11-20T22:36:50.090Z,1.69
2022-11-20T22:39:18.741Z,1.66
2022-11-20T22:41:46.457Z,1.70
2022-11-20T22:44:15.349Z,1.72
2022-11-20T22:46:43.318Z,1.74
2022-11-20T22:49:12.492Z,1.77
2022-11-20T22:51:42.321Z,1.79
2022-11-20T22:54:12.739Z,1.81
2022-11-20T22:56:41.070Z,1.79
2022-11-20T22:59:09.056Z,1.76
2022-11-20T23:01:38.045Z,1.78
2022-11-20T23:04:07.990Z,1.72
2022-11-20T23:06:37.069Z,1.71
2022-11-20T23:09:06.451Z,1.70
2022-11-20T23:11:35.163Z,1.63
2022-11-20T23:14:05.574Z,1.67
2022-11-20T23:16:34.696Z,1.61
2022-11-20T23:19:04.553Z,1.55
2022-11-20T23:21:33.413Z,1.58
2022-11-20T23:24:02.866Z,1.53
2022-11-20T23:26:32.034Z,1.58
2022-11-20T23:29:01.291Z,1.60
2022-11-20T23:31:30.871Z,1.50
2022-11-20T23:33:59.954Z,1.55
2022-11-20T23:36:27.857Z,1.55
2022-11-20T23:38:55.584Z,1.56
2022-11-20T23:41:24.736Z,1.50
2022-11-20T23:43:53.425Z,1.53
2022-11-20T23:46:21.361Z,1.52
2022-11-20T23:48:49.089Z,1.50
2022-11-20T23:51:17.399Z,1.51
2022-11-20T23:53:45.104Z,1.50
2022-11-20T23:56:14.296Z,1.51
2022-11-20T23:58:43.961Z,1.48
